In Rescue
 
Open Full Screen Window  High Contrast Mode
Wind Gusting 14 knots
10
March 01, 2024 3:09 PM CST
Weather Information
Wind Direction
  180 °
Wind Speed
  10 kt (12 mph)
Wind Gust
  14 kt (16 mph)
Altimeter
29.66 in
Visibility
10 SM
Temperature
16° C
61° F
Dewpoint
-01° C
30° F
Humidity
31%
Sky Condition
Clear
VFR

METAR KY63 012109Z AUTO 18010G14KT 10SM CLR 16/M01 A2966 RMK AO2 T01561006

FAA Disclaimer: The data displayed is for advisory purposes only and is not to be used for flight planning or operations.